sensor_id;sensor_type;location;lat;lon;timestamp;temperature;humidity
68511;SHT31;55512;50.102;19.958;2023-05-25T00:00:18;15.10;70.13
68511;SHT31;55512;50.102;19.958;2023-05-25T00:02:44;15.09;70.13
68511;SHT31;55512;50.102;19.958;2023-05-25T00:05:10;15.08;70.10
68511;SHT31;55512;50.102;19.958;2023-05-25T00:10:37;15.05;70.21
68511;SHT31;55512;50.102;19.958;2023-05-25T00:13:02;15.05;70.28
68511;SHT31;55512;50.102;19.958;2023-05-25T00:15:27;15.03;70.33
68511;SHT31;55512;50.102;19.958;2023-05-25T00:17:53;15.01;70.40
68511;SHT31;55512;50.102;19.958;2023-05-25T00:20:19;14.98;70.49
68511;SHT31;55512;50.102;19.958;2023-05-25T00:22:45;14.94;70.57
68511;SHT31;55512;50.102;19.958;2023-05-25T00:25:10;14.89;70.66
68511;SHT31;55512;50.102;19.958;2023-05-25T00:27:36;14.83;70.72
68511;SHT31;55512;50.102;19.958;2023-05-25T00:30:02;14.78;70.80
68511;SHT31;55512;50.102;19.958;2023-05-25T00:32:28;14.74;70.86
68511;SHT31;55512;50.102;19.958;2023-05-25T00:34:53;14.73;70.83
68511;SHT31;55512;50.102;19.958;2023-05-25T00:37:19;14.71;70.94
68511;SHT31;55512;50.102;19.958;2023-05-25T00:39:45;14.71;70.98
68511;SHT31;55512;50.102;19.958;2023-05-25T00:42:11;14.71;70.97
68511;SHT31;55512;50.102;19.958;2023-05-25T00:44:37;14.71;70.96
68511;SHT31;55512;50.102;19.958;2023-05-25T00:47:02;14.73;71.00
68511;SHT31;55512;50.102;19.958;2023-05-25T00:49:33;14.72;71.00
68511;SHT31;55512;50.102;19.958;2023-05-25T00:52:00;14.73;71.04
68511;SHT31;55512;50.102;19.958;2023-05-25T00:54:26;14.72;71.00
68511;SHT31;55512;50.102;19.958;2023-05-25T00:59:38;14.70;71.10
68511;SHT31;55512;50.102;19.958;2023-05-25T01:02:11;14.70;71.11
68511;SHT31;55512;50.102;19.958;2023-05-25T01:04:42;14.71;71.15
68511;SHT31;55512;50.102;19.958;2023-05-25T01:07:13;14.73;71.20
68511;SHT31;55512;50.102;19.958;2023-05-25T01:09:46;14.75;71.20
68511;SHT31;55512;50.102;19.958;2023-05-25T01:12:18;14.76;71.20
68511;SHT31;55512;50.102;19.958;2023-05-25T01:14:46;14.76;71.23
68511;SHT31;55512;50.102;19.958;2023-05-25T01:17:12;14.75;71.28
68511;SHT31;55512;50.102;19.958;2023-05-25T01:19:39;14.76;71.35
68511;SHT31;55512;50.102;19.958;2023-05-25T01:22:30;14.77;71.40
68511;SHT31;55512;50.102;19.958;2023-05-25T01:25:11;14.77;71.40
68511;SHT31;55512;50.102;19.958;2023-05-25T01:27:46;14.77;71.40
68511;SHT31;55512;50.102;19.958;2023-05-25T01:30:18;14.76;71.47
68511;SHT31;55512;50.102;19.958;2023-05-25T01:32:49;14.74;71.50
68511;SHT31;55512;50.102;19.958;2023-05-25T01:35:18;14.74;71.50
68511;SHT31;55512;50.102;19.958;2023-05-25T01:37:46;14.75;71.52
68511;SHT31;55512;50.102;19.958;2023-05-25T01:40:13;14.74;71.58
68511;SHT31;55512;50.102;19.958;2023-05-25T01:42:39;14.75;71.69
68511;SHT31;55512;50.102;19.958;2023-05-25T01:45:06;14.72;71.64
68511;SHT31;55512;50.102;19.958;2023-05-25T01:47:56;14.69;71.60
68511;SHT31;55512;50.102;19.958;2023-05-25T01:53:55;14.60;71.52
68511;SHT31;55512;50.102;19.958;2023-05-25T01:56:27;14.54;71.53
68511;SHT31;55512;50.102;19.958;2023-05-25T01:58:55;14.53;71.60
68511;SHT31;55512;50.102;19.958;2023-05-25T02:01:24;14.54;71.60
68511;SHT31;55512;50.102;19.958;2023-05-25T02:03:52;14.52;71.64
68511;SHT31;55512;50.102;19.958;2023-05-25T02:06:18;14.49;71.70
68511;SHT31;55512;50.102;19.958;2023-05-25T02:08:43;14.47;71.68
68511;SHT31;55512;50.102;19.958;2023-05-25T02:11:11;14.43;71.74
68511;SHT31;55512;50.102;19.958;2023-05-25T02:13:38;14.41;71.80
68511;SHT31;55512;50.102;19.958;2023-05-25T02:16:05;14.41;71.80
68511;SHT31;55512;50.102;19.958;2023-05-25T02:18:31;14.38;71.80
68511;SHT31;55512;50.102;19.958;2023-05-25T02:20:58;14.34;71.89
68511;SHT31;55512;50.102;19.958;2023-05-25T02:23:23;14.35;71.90
68511;SHT31;55512;50.102;19.958;2023-05-25T02:25:49;14.35;71.84
68511;SHT31;55512;50.102;19.958;2023-05-25T02:28:15;14.35;71.90
68511;SHT31;55512;50.102;19.958;2023-05-25T02:30:41;14.35;71.89
68511;SHT31;55512;50.102;19.958;2023-05-25T02:33:07;14.34;71.91
68511;SHT31;55512;50.102;19.958;2023-05-25T02:35:32;14.34;72.00
68511;SHT31;55512;50.102;19.958;2023-05-25T02:37:58;14.34;71.99
68511;SHT31;55512;50.102;19.958;2023-05-25T02:40:23;14.32;72.00
68511;SHT31;55512;50.102;19.958;2023-05-25T02:42:49;14.33;72.01
68511;SHT31;55512;50.102;19.958;2023-05-25T02:45:14;14.33;72.00
68511;SHT31;55512;50.102;19.958;2023-05-25T02:50:31;14.34;72.00
68511;SHT31;55512;50.102;19.958;2023-05-25T02:52:57;14.31;72.05
68511;SHT31;55512;50.102;19.958;2023-05-25T02:55:23;14.25;72.06
68511;SHT31;55512;50.102;19.958;2023-05-25T02:57:54;14.22;72.06
68511;SHT31;55512;50.102;19.958;2023-05-25T03:00:27;14.21;72.02
68511;SHT31;55512;50.102;19.958;2023-05-25T03:02:53;14.19;72.00
68511;SHT31;55512;50.102;19.958;2023-05-25T03:05:19;14.18;72.00
68511;SHT31;55512;50.102;19.958;2023-05-25T03:07:45;14.15;72.07
68511;SHT31;55512;50.102;19.958;2023-05-25T03:10:11;14.14;72.10
68511;SHT31;55512;50.102;19.958;2023-05-25T03:12:37;14.15;72.15
68511;SHT31;55512;50.102;19.958;2023-05-25T03:15:03;14.16;72.13
68511;SHT31;55512;50.102;19.958;2023-05-25T03:17:29;14.17;72.10
68511;SHT31;55512;50.102;19.958;2023-05-25T03:19:55;14.15;72.15
68511;SHT31;55512;50.102;19.958;2023-05-25T03:22:21;14.15;72.22
68511;SHT31;55512;50.102;19.958;2023-05-25T03:24:46;14.17;72.22
68511;SHT31;55512;50.102;19.958;2023-05-25T03:27:14;14.18;72.21
68511;SHT31;55512;50.102;19.958;2023-05-25T03:29:39;14.17;72.21
68511;SHT31;55512;50.102;19.958;2023-05-25T03:32:05;14.15;72.27
68511;SHT31;55512;50.102;19.958;2023-05-25T03:34:31;14.14;72.31
68511;SHT31;55512;50.102;19.958;2023-05-25T03:36:58;14.15;72.37
68511;SHT31;55512;50.102;19.958;2023-05-25T03:39:25;14.15;72.34
68511;SHT31;55512;50.102;19.958;2023-05-25T03:41:50;14.16;72.40
68511;SHT31;55512;50.102;19.958;2023-05-25T03:44:15;14.17;72.40
68511;SHT31;55512;50.102;19.958;2023-05-25T03:46:41;14.18;72.40
68511;SHT31;55512;50.102;19.958;2023-05-25T03:49:06;14.19;72.45
68511;SHT31;55512;50.102;19.958;2023-05-25T03:51:32;14.19;72.53
68511;SHT31;55512;50.102;19.958;2023-05-25T03:53:58;14.19;72.62
68511;SHT31;55512;50.102;19.958;2023-05-25T03:56:23;14.20;72.67
68511;SHT31;55512;50.102;19.958;2023-05-25T03:58:50;14.19;72.67
68511;SHT31;55512;50.102;19.958;2023-05-25T04:01:16;14.19;72.70
68511;SHT31;55512;50.102;19.958;2023-05-25T04:03:42;14.18;72.78
68511;SHT31;55512;50.102;19.958;2023-05-25T04:06:07;14.17;72.91
68511;SHT31;55512;50.102;19.958;2023-05-25T04:08:33;14.18;73.00
68511;SHT31;55512;50.102;19.958;2023-05-25T04:10:58;14.19;73.00
68511;SHT31;55512;50.102;19.958;2023-05-25T04:13:24;14.19;73.05
68511;SHT31;55512;50.102;19.958;2023-05-25T04:15:50;14.18;73.10
68511;SHT31;55512;50.102;19.958;2023-05-25T04:18:15;14.15;73.15
68511;SHT31;55512;50.102;19.958;2023-05-25T04:20:41;14.14;73.19
68511;SHT31;55512;50.102;19.958;2023-05-25T04:23:06;14.14;73.20
68511;SHT31;55512;50.102;19.958;2023-05-25T04:25:31;14.16;73.20
68511;SHT31;55512;50.102;19.958;2023-05-25T04:27:57;14.16;73.23
68511;SHT31;55512;50.102;19.958;2023-05-25T04:30:23;14.17;73.22
68511;SHT31;55512;50.102;19.958;2023-05-25T04:32:48;14.15;73.30
68511;SHT31;55512;50.102;19.958;2023-05-25T04:35:14;14.13;73.34
68511;SHT31;55512;50.102;19.958;2023-05-25T04:37:40;14.14;73.40
68511;SHT31;55512;50.102;19.958;2023-05-25T04:40:06;14.14;73.40
68511;SHT31;55512;50.102;19.958;2023-05-25T04:42:38;14.15;73.40
68511;SHT31;55512;50.102;19.958;2023-05-25T04:45:05;14.14;73.40
68511;SHT31;55512;50.102;19.958;2023-05-25T04:47:36;14.16;73.39
68511;SHT31;55512;50.102;19.958;2023-05-25T04:50:05;14.16;73.40
68511;SHT31;55512;50.102;19.958;2023-05-25T04:52:33;14.19;73.38
68511;SHT31;55512;50.102;19.958;2023-05-25T04:54:58;14.22;73.40
68511;SHT31;55512;50.102;19.958;2023-05-25T04:57:24;14.24;73.40
68511;SHT31;55512;50.102;19.958;2023-05-25T04:59:52;14.26;73.30
68511;SHT31;55512;50.102;19.958;2023-05-25T05:02:18;14.29;73.21
68511;SHT31;55512;50.102;19.958;2023-05-25T05:04:43;14.33;73.19
68511;SHT31;55512;50.102;19.958;2023-05-25T05:07:09;14.34;73.20
68511;SHT31;55512;50.102;19.958;2023-05-25T05:09:34;14.35;73.15
68511;SHT31;55512;50.102;19.958;2023-05-25T05:12:00;14.36;73.09
68511;SHT31;55512;50.102;19.958;2023-05-25T05:14:25;14.34;73.00
68511;SHT31;55512;50.102;19.958;2023-05-25T05:16:51;14.32;73.03
68511;SHT31;55512;50.102;19.958;2023-05-25T05:19:17;14.31;73.08
68511;SHT31;55512;50.102;19.958;2023-05-25T05:21:42;14.31;73.00
68511;SHT31;55512;50.102;19.958;2023-05-25T05:24:07;14.33;72.96
68511;SHT31;55512;50.102;19.958;2023-05-25T05:26:33;14.34;72.94
68511;SHT31;55512;50.102;19.958;2023-05-25T05:28:58;14.35;72.92
68511;SHT31;55512;50.102;19.958;2023-05-25T05:31:24;14.38;72.94
68511;SHT31;55512;50.102;19.958;2023-05-25T05:33:51;14.36;72.92
68511;SHT31;55512;50.102;19.958;2023-05-25T05:36:16;14.31;72.92
68511;SHT31;55512;50.102;19.958;2023-05-25T05:38:42;14.32;73.00
68511;SHT31;55512;50.102;19.958;2023-05-25T05:41:10;14.34;72.98
68511;SHT31;55512;50.102;19.958;2023-05-25T05:43:38;14.37;72.80
68511;SHT31;55512;50.102;19.958;2023-05-25T05:46:07;14.40;72.64
68511;SHT31;55512;50.102;19.958;2023-05-25T05:48:34;14.41;72.46
68511;SHT31;55512;50.102;19.958;2023-05-25T05:51:02;14.40;72.30
68511;SHT31;55512;50.102;19.958;2023-05-25T05:53:30;14.39;72.40
68511;SHT31;55512;50.102;19.958;2023-05-25T05:55:57;14.43;72.49
68511;SHT31;55512;50.102;19.958;2023-05-25T05:58:27;14.43;72.46
68511;SHT31;55512;50.102;19.958;2023-05-25T06:00:53;14.43;72.40
68511;SHT31;55512;50.102;19.958;2023-05-25T06:03:21;14.41;72.39
68511;SHT31;55512;50.102;19.958;2023-05-25T06:05:47;14.43;72.38
68511;SHT31;55512;50.102;19.958;2023-05-25T06:08:13;14.50;72.30
68511;SHT31;55512;50.102;19.958;2023-05-25T06:10:39;14.52;72.25
68511;SHT31;55512;50.102;19.958;2023-05-25T06:15:45;14.60;72.00
68511;SHT31;55512;50.102;19.958;2023-05-25T06:18:11;14.64;71.79
68511;SHT31;55512;50.102;19.958;2023-05-25T06:20:36;14.62;71.67
68511;SHT31;55512;50.102;19.958;2023-05-25T06:23:02;14.64;71.69
68511;SHT31;55512;50.102;19.958;2023-05-25T06:25:27;14.71;71.62
68511;SHT31;55512;50.102;19.958;2023-05-25T06:27:53;14.78;71.49
68511;SHT31;55512;50.102;19.958;2023-05-25T06:30:18;14.84;71.36
68511;SHT31;55512;50.102;19.958;2023-05-25T06:32:44;14.87;71.23
68511;SHT31;55512;50.102;19.958;2023-05-25T06:35:09;14.91;71.04
68511;SHT31;55512;50.102;19.958;2023-05-25T06:37:41;14.93;70.90
68511;SHT31;55512;50.102;19.958;2023-05-25T06:40:06;14.97;70.80
68511;SHT31;55512;50.102;19.958;2023-05-25T06:42:35;15.01;70.54
68511;SHT31;55512;50.102;19.958;2023-05-25T06:45:02;15.00;70.50
68511;SHT31;55512;50.102;19.958;2023-05-25T06:47:28;15.02;70.51
68511;SHT31;55512;50.102;19.958;2023-05-25T06:49:54;15.06;70.32
68511;SHT31;55512;50.102;19.958;2023-05-25T06:52:20;15.02;70.20
68511;SHT31;55512;50.102;19.958;2023-05-25T06:54:46;14.96;70.22
68511;SHT31;55512;50.102;19.958;2023-05-25T06:57:11;14.91;70.27
68511;SHT31;55512;50.102;19.958;2023-05-25T06:59:36;14.88;70.18
68511;SHT31;55512;50.102;19.958;2023-05-25T07:02:02;14.85;70.20
68511;SHT31;55512;50.102;19.958;2023-05-25T07:04:27;14.81;70.20
68511;SHT31;55512;50.102;19.958;2023-05-25T07:06:53;14.83;70.27
68511;SHT31;55512;50.102;19.958;2023-05-25T07:09:18;14.88;70.27
68511;SHT31;55512;50.102;19.958;2023-05-25T07:11:44;14.94;70.14
68511;SHT31;55512;50.102;19.958;2023-05-25T07:14:09;14.99;70.11
68511;SHT31;55512;50.102;19.958;2023-05-25T07:16:35;15.06;70.04
68511;SHT31;55512;50.102;19.958;2023-05-25T07:19:00;15.08;70.03
68511;SHT31;55512;50.102;19.958;2023-05-25T07:21:26;15.14;70.03
68511;SHT31;55512;50.102;19.958;2023-05-25T07:23:57;15.19;69.97
68511;SHT31;55512;50.102;19.958;2023-05-25T07:26:22;15.26;69.72
68511;SHT31;55512;50.102;19.958;2023-05-25T07:31:39;15.25;69.48
68511;SHT31;55512;50.102;19.958;2023-05-25T07:34:05;15.32;69.35
68511;SHT31;55512;50.102;19.958;2023-05-25T07:36:30;15.37;69.21
68511;SHT31;55512;50.102;19.958;2023-05-25T07:38:56;15.40;69.04
68511;SHT31;55512;50.102;19.958;2023-05-25T07:41:22;15.45;68.99
68511;SHT31;55512;50.102;19.958;2023-05-25T07:43:48;15.53;68.89
68511;SHT31;55512;50.102;19.958;2023-05-25T07:46:13;15.60;68.73
68511;SHT31;55512;50.102;19.958;2023-05-25T07:48:40;15.64;68.46
68511;SHT31;55512;50.102;19.958;2023-05-25T07:51:05;15.68;68.35
68511;SHT31;55512;50.102;19.958;2023-05-25T07:53:31;15.66;68.32
68511;SHT31;55512;50.102;19.958;2023-05-25T07:55:56;15.70;68.48
68511;SHT31;55512;50.102;19.958;2023-05-25T07:58:21;15.75;68.34
68511;SHT31;55512;50.102;19.958;2023-05-25T08:00:47;15.79;68.36
68511;SHT31;55512;50.102;19.958;2023-05-25T08:03:14;15.85;68.21
68511;SHT31;55512;50.102;19.958;2023-05-25T08:05:39;15.93;68.02
68511;SHT31;55512;50.102;19.958;2023-05-25T08:08:05;15.95;67.70
68511;SHT31;55512;50.102;19.958;2023-05-25T08:10:30;15.95;67.67
68511;SHT31;55512;50.102;19.958;2023-05-25T08:12:56;15.99;67.54
68511;SHT31;55512;50.102;19.958;2023-05-25T08:15:23;15.98;67.45
68511;SHT31;55512;50.102;19.958;2023-05-25T08:17:50;16.00;67.38
68511;SHT31;55512;50.102;19.958;2023-05-25T08:20:16;15.98;67.35
68511;SHT31;55512;50.102;19.958;2023-05-25T08:22:42;16.01;67.31
68511;SHT31;55512;50.102;19.958;2023-05-25T08:25:08;16.02;67.16
68511;SHT31;55512;50.102;19.958;2023-05-25T08:27:34;16.02;67.14
68511;SHT31;55512;50.102;19.958;2023-05-25T08:30:00;16.04;67.23
68511;SHT31;55512;50.102;19.958;2023-05-25T08:32:25;16.07;67.31
68511;SHT31;55512;50.102;19.958;2023-05-25T08:34:51;16.10;67.05
68511;SHT31;55512;50.102;19.958;2023-05-25T08:37:16;16.12;66.93
68511;SHT31;55512;50.102;19.958;2023-05-25T08:39:43;16.18;66.87
68511;SHT31;55512;50.102;19.958;2023-05-25T08:42:09;16.27;66.71
68511;SHT31;55512;50.102;19.958;2023-05-25T08:44:35;16.34;66.45
68511;SHT31;55512;50.102;19.958;2023-05-25T08:47:04;16.34;66.33
68511;SHT31;55512;50.102;19.958;2023-05-25T08:49:33;16.38;66.30
68511;SHT31;55512;50.102;19.958;2023-05-25T08:52:02;16.45;66.22
68511;SHT31;55512;50.102;19.958;2023-05-25T08:54:38;16.50;66.11
68511;SHT31;55512;50.102;19.958;2023-05-25T08:57:14;16.53;66.15
68511;SHT31;55512;50.102;19.958;2023-05-25T08:59:51;16.53;66.05
68511;SHT31;55512;50.102;19.958;2023-05-25T09:02:34;16.50;66.12
68511;SHT31;55512;50.102;19.958;2023-05-25T09:05:09;16.47;66.02
68511;SHT31;55512;50.102;19.958;2023-05-25T09:07:35;16.46;66.20
68511;SHT31;55512;50.102;19.958;2023-05-25T09:10:01;16.42;66.01
68511;SHT31;55512;50.102;19.958;2023-05-25T09:12:28;16.43;66.04
68511;SHT31;55512;50.102;19.958;2023-05-25T09:14:56;16.48;65.95
68511;SHT31;55512;50.102;19.958;2023-05-25T09:17:22;16.50;65.90
68511;SHT31;55512;50.102;19.958;2023-05-25T09:19:48;16.52;65.79
68511;SHT31;55512;50.102;19.958;2023-05-25T09:22:15;16.53;65.81
68511;SHT31;55512;50.102;19.958;2023-05-25T09:24:40;16.55;65.68
68511;SHT31;55512;50.102;19.958;2023-05-25T09:27:11;16.50;65.72
68511;SHT31;55512;50.102;19.958;2023-05-25T09:29:41;16.52;65.78
68511;SHT31;55512;50.102;19.958;2023-05-25T09:32:07;16.54;65.73
68511;SHT31;55512;50.102;19.958;2023-05-25T09:34:33;16.58;65.71
68511;SHT31;55512;50.102;19.958;2023-05-25T09:37:02;16.60;65.53
68511;SHT31;55512;50.102;19.958;2023-05-25T09:39:35;16.58;65.57
68511;SHT31;55512;50.102;19.958;2023-05-25T09:42:01;16.51;65.52
68511;SHT31;55512;50.102;19.958;2023-05-25T09:44:27;16.47;65.73
68511;SHT31;55512;50.102;19.958;2023-05-25T09:46:53;16.46;65.70
68511;SHT31;55512;50.102;19.958;2023-05-25T09:49:18;16.41;65.73
68511;SHT31;55512;50.102;19.958;2023-05-25T09:51:45;16.36;65.77
68511;SHT31;55512;50.102;19.958;2023-05-25T09:54:12;16.39;66.07
68511;SHT31;55512;50.102;19.958;2023-05-25T09:56:37;16.47;66.07
68511;SHT31;55512;50.102;19.958;2023-05-25T09:59:03;16.56;65.87
68511;SHT31;55512;50.102;19.958;2023-05-25T10:01:30;16.66;65.68
68511;SHT31;55512;50.102;19.958;2023-05-25T10:06:31;16.66;65.42
68511;SHT31;55512;50.102;19.958;2023-05-25T10:08:59;16.67;65.43
68511;SHT31;55512;50.102;19.958;2023-05-25T10:11:25;16.72;65.49
68511;SHT31;55512;50.102;19.958;2023-05-25T10:13:53;16.83;65.35
68511;SHT31;55512;50.102;19.958;2023-05-25T10:19:05;17.01;65.01
68511;SHT31;55512;50.102;19.958;2023-05-25T10:21:36;17.08;64.88
68511;SHT31;55512;50.102;19.958;2023-05-25T10:24:05;17.07;64.55
68511;SHT31;55512;50.102;19.958;2023-05-25T10:26:59;17.06;64.75
68511;SHT31;55512;50.102;19.958;2023-05-25T10:29:28;17.09;64.59
68511;SHT31;55512;50.102;19.958;2023-05-25T10:31:55;17.08;64.55
68511;SHT31;55512;50.102;19.958;2023-05-25T10:34:22;17.13;64.51
68511;SHT31;55512;50.102;19.958;2023-05-25T10:36:48;17.20;64.44
68511;SHT31;55512;50.102;19.958;2023-05-25T10:39:15;17.26;64.45
68511;SHT31;55512;50.102;19.958;2023-05-25T10:41:44;17.31;64.33
68511;SHT31;55512;50.102;19.958;2023-05-25T10:44:11;17.32;64.19
68511;SHT31;55512;50.102;19.958;2023-05-25T10:46:37;17.35;64.17
68511;SHT31;55512;50.102;19.958;2023-05-25T10:49:03;17.40;64.02
68511;SHT31;55512;50.102;19.958;2023-05-25T10:51:39;17.40;63.84
68511;SHT31;55512;50.102;19.958;2023-05-25T10:54:05;17.42;63.86
68511;SHT31;55512;50.102;19.958;2023-05-25T10:56:31;17.44;63.78
68511;SHT31;55512;50.102;19.958;2023-05-25T10:58:57;17.43;63.79
68511;SHT31;55512;50.102;19.958;2023-05-25T11:01:23;17.43;63.90
68511;SHT31;55512;50.102;19.958;2023-05-25T11:03:51;17.47;63.84
68511;SHT31;55512;50.102;19.958;2023-05-25T11:06:22;17.51;63.66
68511;SHT31;55512;50.102;19.958;2023-05-25T11:09:25;17.58;63.55
68511;SHT31;55512;50.102;19.958;2023-05-25T11:14:22;17.69;63.30
68511;SHT31;55512;50.102;19.958;2023-05-25T11:22:16;17.86;62.98
68511;SHT31;55512;50.102;19.958;2023-05-25T11:24:48;17.89;62.78
68511;SHT31;55512;50.102;19.958;2023-05-25T11:27:26;17.88;62.80
68511;SHT31;55512;50.102;19.958;2023-05-25T11:29:54;17.88;62.70
68511;SHT31;55512;50.102;19.958;2023-05-25T11:32:21;17.88;62.62
68511;SHT31;55512;50.102;19.958;2023-05-25T11:34:56;17.78;62.48
68511;SHT31;55512;50.102;19.958;2023-05-25T11:37:22;17.73;62.75
68511;SHT31;55512;50.102;19.958;2023-05-25T11:39:55;17.79;62.74
68511;SHT31;55512;50.102;19.958;2023-05-25T11:42:21;17.81;62.74
68511;SHT31;55512;50.102;19.958;2023-05-25T11:44:48;17.79;62.64
68511;SHT31;55512;50.102;19.958;2023-05-25T11:47:14;17.74;62.73
68511;SHT31;55512;50.102;19.958;2023-05-25T11:49:45;17.76;62.87
68511;SHT31;55512;50.102;19.958;2023-05-25T11:52:13;17.83;62.88
68511;SHT31;55512;50.102;19.958;2023-05-25T11:54:41;17.90;62.53
68511;SHT31;55512;50.102;19.958;2023-05-25T11:59:55;17.87;62.45
68511;SHT31;55512;50.102;19.958;2023-05-25T12:02:25;17.84;62.53
68511;SHT31;55512;50.102;19.958;2023-05-25T12:04:59;17.82;62.67
68511;SHT31;55512;50.102;19.958;2023-05-25T12:07:26;17.79;62.82
68511;SHT31;55512;50.102;19.958;2023-05-25T12:10:06;17.78;62.81
68511;SHT31;55512;50.102;19.958;2023-05-25T12:12:37;17.81;62.83
68511;SHT31;55512;50.102;19.958;2023-05-25T12:15:14;17.83;62.80
68511;SHT31;55512;50.102;19.958;2023-05-25T12:17:46;17.84;62.91
68511;SHT31;55512;50.102;19.958;2023-05-25T12:20:13;17.83;62.83
68511;SHT31;55512;50.102;19.958;2023-05-25T12:22:41;17.80;62.71
68511;SHT31;55512;50.102;19.958;2023-05-25T12:25:08;17.80;62.80
68511;SHT31;55512;50.102;19.958;2023-05-25T12:27:36;17.82;62.78
68511;SHT31;55512;50.102;19.958;2023-05-25T12:30:06;17.76;62.60
68511;SHT31;55512;50.102;19.958;2023-05-25T12:32:34;17.68;62.75
68511;SHT31;55512;50.102;19.958;2023-05-25T12:35:24;17.65;62.93
68511;SHT31;55512;50.102;19.958;2023-05-25T12:37:53;17.62;63.24
68511;SHT31;55512;50.102;19.958;2023-05-25T12:40:35;17.64;63.25
68511;SHT31;55512;50.102;19.958;2023-05-25T12:43:00;17.66;63.20
68511;SHT31;55512;50.102;19.958;2023-05-25T12:45:26;17.74;63.20
68511;SHT31;55512;50.102;19.958;2023-05-25T12:47:51;17.83;63.09
68511;SHT31;55512;50.102;19.958;2023-05-25T12:50:17;17.87;62.95
68511;SHT31;55512;50.102;19.958;2023-05-25T12:52:44;17.84;62.78
68511;SHT31;55512;50.102;19.958;2023-05-25T12:55:28;17.76;62.90
68511;SHT31;55512;50.102;19.958;2023-05-25T12:58:00;17.75;63.09
68511;SHT31;55512;50.102;19.958;2023-05-25T13:00:33;17.83;63.19
68511;SHT31;55512;50.102;19.958;2023-05-25T13:03:02;17.89;63.05
68511;SHT31;55512;50.102;19.958;2023-05-25T13:05:29;17.94;62.95
68511;SHT31;55512;50.102;19.958;2023-05-25T13:08:03;17.98;62.77
68511;SHT31;55512;50.102;19.958;2023-05-25T13:10:31;17.97;62.58
68511;SHT31;55512;50.102;19.958;2023-05-25T13:12:57;17.97;62.77
68511;SHT31;55512;50.102;19.958;2023-05-25T13:15:23;18.00;62.81
68511;SHT31;55512;50.102;19.958;2023-05-25T13:17:51;18.00;62.63
68511;SHT31;55512;50.102;19.958;2023-05-25T13:20:19;17.99;62.59
68511;SHT31;55512;50.102;19.958;2023-05-25T13:22:47;18.00;62.78
68511;SHT31;55512;50.102;19.958;2023-05-25T13:25:14;18.00;62.83
68511;SHT31;55512;50.102;19.958;2023-05-25T13:27:45;18.06;62.62
68511;SHT31;55512;50.102;19.958;2023-05-25T13:30:13;18.10;62.49
68511;SHT31;55512;50.102;19.958;2023-05-25T13:32:40;18.16;62.50
68511;SHT31;55512;50.102;19.958;2023-05-25T13:35:10;18.21;62.40
68511;SHT31;55512;50.102;19.958;2023-05-25T13:37:43;18.21;62.42
68511;SHT31;55512;50.102;19.958;2023-05-25T13:40:09;18.18;62.47
68511;SHT31;55512;50.102;19.958;2023-05-25T13:42:35;18.19;62.63
68511;SHT31;55512;50.102;19.958;2023-05-25T13:45:00;18.17;62.46
68511;SHT31;55512;50.102;19.958;2023-05-25T13:47:26;18.13;62.39
68511;SHT31;55512;50.102;19.958;2023-05-25T13:49:51;18.11;62.46
68511;SHT31;55512;50.102;19.958;2023-05-25T13:52:17;18.12;62.44
68511;SHT31;55512;50.102;19.958;2023-05-25T13:54:42;18.11;62.43
68511;SHT31;55512;50.102;19.958;2023-05-25T13:57:08;18.09;62.64
68511;SHT31;55512;50.102;19.958;2023-05-25T13:59:33;18.08;62.65
68511;SHT31;55512;50.102;19.958;2023-05-25T14:01:59;18.06;62.75
68511;SHT31;55512;50.102;19.958;2023-05-25T14:04:25;18.03;62.88
68511;SHT31;55512;50.102;19.958;2023-05-25T14:06:50;18.02;63.04
68511;SHT31;55512;50.102;19.958;2023-05-25T14:09:16;18.00;63.00
68511;SHT31;55512;50.102;19.958;2023-05-25T14:11:41;18.00;63.08
68511;SHT31;55512;50.102;19.958;2023-05-25T14:14:07;17.96;62.99
68511;SHT31;55512;50.102;19.958;2023-05-25T14:16:33;17.92;63.10
68511;SHT31;55512;50.102;19.958;2023-05-25T14:19:00;17.88;63.16
68511;SHT31;55512;50.102;19.958;2023-05-25T14:21:26;17.84;63.35
68511;SHT31;55512;50.102;19.958;2023-05-25T14:23:53;17.81;63.54
68511;SHT31;55512;50.102;19.958;2023-05-25T14:26:20;17.79;63.54
68511;SHT31;55512;50.102;19.958;2023-05-25T14:28:46;17.77;63.56
68511;SHT31;55512;50.102;19.958;2023-05-25T14:31:11;17.74;63.59
68511;SHT31;55512;50.102;19.958;2023-05-25T14:33:36;17.70;63.84
68511;SHT31;55512;50.102;19.958;2023-05-25T14:36:02;17.69;63.75
68511;SHT31;55512;50.102;19.958;2023-05-25T14:38:28;17.68;63.82
68511;SHT31;55512;50.102;19.958;2023-05-25T14:40:54;17.69;63.82
68511;SHT31;55512;50.102;19.958;2023-05-25T14:43:23;17.68;63.82
68511;SHT31;55512;50.102;19.958;2023-05-25T14:45:48;17.68;63.86
68511;SHT31;55512;50.102;19.958;2023-05-25T14:48:14;17.67;63.98
68511;SHT31;55512;50.102;19.958;2023-05-25T14:50:40;17.66;63.99
68511;SHT31;55512;50.102;19.958;2023-05-25T14:53:07;17.67;63.91
68511;SHT31;55512;50.102;19.958;2023-05-25T14:55:33;17.66;63.92
68511;SHT31;55512;50.102;19.958;2023-05-25T14:57:58;17.66;64.04
68511;SHT31;55512;50.102;19.958;2023-05-25T15:00:24;17.68;64.00
68511;SHT31;55512;50.102;19.958;2023-05-25T15:02:49;17.68;64.09
68511;SHT31;55512;50.102;19.958;2023-05-25T15:05:14;17.72;64.12
68511;SHT31;55512;50.102;19.958;2023-05-25T15:07:40;17.77;64.06
68511;SHT31;55512;50.102;19.958;2023-05-25T15:10:06;17.80;64.03
68511;SHT31;55512;50.102;19.958;2023-05-25T15:12:32;17.81;64.11
68511;SHT31;55512;50.102;19.958;2023-05-25T15:14:57;17.86;64.09
68511;SHT31;55512;50.102;19.958;2023-05-25T15:17:23;17.89;63.94
68511;SHT31;55512;50.102;19.958;2023-05-25T15:19:48;17.93;63.90
68511;SHT31;55512;50.102;19.958;2023-05-25T15:22:13;17.95;63.85
68511;SHT31;55512;50.102;19.958;2023-05-25T15:24:39;17.96;63.79
68511;SHT31;55512;50.102;19.958;2023-05-25T15:27:05;18.02;63.79
68511;SHT31;55512;50.102;19.958;2023-05-25T15:29:30;18.06;63.73
68511;SHT31;55512;50.102;19.958;2023-05-25T15:31:55;18.08;63.70
68511;SHT31;55512;50.102;19.958;2023-05-25T15:34:21;18.12;63.70
68511;SHT31;55512;50.102;19.958;2023-05-25T15:36:46;18.20;63.55
68511;SHT31;55512;50.102;19.958;2023-05-25T15:39:12;18.21;63.39
68511;SHT31;55512;50.102;19.958;2023-05-25T15:41:39;18.19;63.37
68511;SHT31;55512;50.102;19.958;2023-05-25T15:44:05;18.22;63.34
68511;SHT31;55512;50.102;19.958;2023-05-25T15:46:32;18.24;63.27
68511;SHT31;55512;50.102;19.958;2023-05-25T15:48:57;18.24;63.23